Time,TemperatureF,DewpointF,PressureIn,WindDirection,WindDirectionDegrees,WindSpeedMPH,WindSpeedGustMPH,Humidity,HourlyPrecipIn,Conditions,Clouds,dailyrainin,SoftwareType,DateUTC
2013-05-12 00:01:00,39.7,28.1,30.19,NNW,338,5.1,5.1,63,0.00,,,0.00,VWS V14.01,2013-05-12 05:01:00,
2013-05-12 00:06:00,39.5,28.0,30.20,NW,315,1.1,1.1,63,0.00,,,0.00,VWS V14.01,2013-05-12 05:06:00,
2013-05-12 00:11:00,39.5,28.4,30.19,WNW,292,0.4,0.4,64,0.00,,,0.00,VWS V14.01,2013-05-12 05:11:00,
2013-05-12 00:16:00,39.3,28.2,30.19,NNW,338,0.0,0.0,64,0.00,,,0.00,VWS V14.01,2013-05-12 05:16:00,
2013-05-12 00:21:00,39.3,28.2,30.20,NNW,338,2.2,2.2,64,0.00,,,0.00,VWS V14.01,2013-05-12 05:21:00,
2013-05-12 00:26:00,39.2,28.1,30.20,WNW,292,2.0,2.0,64,0.00,,,0.00,VWS V14.01,2013-05-12 05:26:00,
2013-05-12 00:31:00,39.0,27.9,30.20,NW,315,0.0,0.0,64,0.00,,,0.00,VWS V14.01,2013-05-12 05:31:00,
2013-05-12 00:36:00,38.8,28.1,30.20,NW,315,2.6,2.6,65,0.00,,,0.02,VWS V14.01,2013-05-12 05:36:00,
2013-05-12 00:41:00,39.0,28.2,30.19,WNW,292,1.7,1.7,65,0.00,,,0.00,VWS V14.01,2013-05-12 05:41:00,
2013-05-12 00:46:00,38.8,28.1,30.20,NW,315,4.0,4.0,65,0.00,,,0.00,VWS V14.01,2013-05-12 05:46:00,
2013-05-12 00:51:00,38.8,28.1,30.20,WNW,292,5.1,5.1,65,0.00,,,0.00,VWS V14.01,2013-05-12 05:51:00,
2013-05-12 00:56:00,38.8,28.4,30.20,NW,315,1.7,1.7,66,0.00,,,0.00,VWS V14.01,2013-05-12 05:56:00,
2013-05-12 01:01:00,38.3,28.0,30.20,WNW,292,6.2,6.2,66,0.00,,,0.00,VWS V14.01,2013-05-12 06:01:00,
2013-05-12 01:06:00,37.9,27.9,30.20,WNW,292,4.0,4.0,67,0.00,,,0.00,VWS V14.01,2013-05-12 06:06:00,
2013-05-12 01:11:00,37.9,28.3,30.20,NW,315,2.6,2.6,68,0.00,,,0.00,VWS V14.01,2013-05-12 06:11:00,
2013-05-12 01:16:00,38.1,28.1,30.20,WNW,292,1.5,1.5,67,0.00,,,0.00,VWS V14.01,2013-05-12 06:16:00,
2013-05-12 01:21:00,37.9,27.9,30.20,NW,315,3.3,3.3,67,0.00,,,0.02,VWS V14.01,2013-05-12 06:21:00,
2013-05-12 01:26:00,37.9,27.9,30.20,WNW,292,2.2,2.2,67,0.00,,,0.00,VWS V14.01,2013-05-12 06:26:00,
2013-05-12 01:31:00,37.7,28.1,30.20,WNW,292,1.1,1.1,68,0.00,,,0.00,VWS V14.01,2013-05-12 06:31:00,
2013-05-12 01:36:00,37.5,27.9,30.20,WNW,292,2.6,2.6,68,0.00,,,0.00,VWS V14.01,2013-05-12 06:36:00,
2013-05-12 01:41:00,37.5,27.9,30.20,WNW,292,1.1,1.1,68,0.00,,,0.00,VWS V14.01,2013-05-12 06:41:00,
2013-05-12 01:46:00,37.9,27.9,30.20,WNW,292,0.6,0.6,67,0.00,,,0.00,VWS V14.01,2013-05-12 06:46:00,
2013-05-12 01:51:00,38.3,28.0,30.20,WNW,292,4.0,4.0,66,0.00,,,0.00,VWS V14.01,2013-05-12 06:51:00,
2013-05-12 01:56:00,38.3,28.0,30.20,WNW,292,0.0,0.0,66,0.00,,,0.00,VWS V14.01,2013-05-12 06:56:00,
2013-05-12 02:01:00,37.9,27.6,30.20,WNW,292,0.0,0.0,66,0.00,,,0.00,VWS V14.01,2013-05-12 07:01:00,
2013-05-12 02:06:00,37.2,27.6,30.20,WNW,292,1.7,1.7,68,0.00,,,0.00,VWS V14.01,2013-05-12 07:06:00,
2013-05-12 02:11:00,37.0,27.8,30.20,WNW,292,1.1,1.1,69,0.00,,,0.00,VWS V14.01,2013-05-12 07:11:00,
2013-05-12 02:16:00,37.0,27.8,30.20,WNW,292,3.1,3.1,69,0.00,,,0.00,VWS V14.01,2013-05-12 07:16:00,
2013-05-12 02:21:00,37.0,27.8,30.20,WNW,292,1.3,1.3,69,0.00,,,0.00,VWS V14.01,2013-05-12 07:21:00,
2013-05-12 02:26:00,36.8,27.6,30.19,WNW,292,3.3,3.3,69,0.00,,,0.00,VWS V14.01,2013-05-12 07:26:00,
2013-05-12 02:31:00,36.8,27.6,30.19,WNW,292,4.9,4.9,69,0.00,,,0.00,VWS V14.01,2013-05-12 07:31:00,
2013-05-12 02:36:00,37.0,27.8,30.20,NNW,338,4.2,4.2,69,0.00,,,0.00,VWS V14.01,2013-05-12 07:36:00,
2013-05-12 02:41:00,37.2,28.0,30.20,WNW,292,1.1,1.1,69,0.00,,,0.00,VWS V14.01,2013-05-12 07:41:00,
2013-05-12 02:46:00,37.2,28.0,30.20,WNW,292,3.1,3.1,69,0.00,,,0.00,VWS V14.01,2013-05-12 07:46:00,
2013-05-12 02:51:00,37.2,28.0,30.20,WNW,292,0.6,0.6,69,0.00,,,0.00,VWS V14.01,2013-05-12 07:51:00,
2013-05-12 02:56:00,37.2,27.6,30.20,WNW,292,3.5,3.5,68,0.00,,,0.00,VWS V14.01,2013-05-12 07:56:00,
2013-05-12 03:01:00,37.2,28.0,30.20,WNW,292,4.4,4.4,69,0.00,,,0.00,VWS V14.01,2013-05-12 08:01:00,
2013-05-12 03:06:00,37.0,27.8,30.20,WNW,292,3.1,3.1,69,0.00,,,0.00,VWS V14.01,2013-05-12 08:06:00,
2013-05-12 03:11:00,37.0,27.8,30.20,WNW,292,6.7,6.7,69,0.00,,,0.00,VWS V14.01,2013-05-12 08:11:00,
2013-05-12 03:16:00,37.0,28.1,30.20,WNW,292,4.2,4.2,70,0.00,,,0.00,VWS V14.01,2013-05-12 08:16:00,
2013-05-12 03:21:00,36.6,27.8,30.20,WNW,292,6.4,6.4,70,0.00,,,0.00,VWS V14.01,2013-05-12 08:21:00,
2013-05-12 03:26:00,36.5,28.0,30.20,WNW,292,3.3,3.3,71,0.00,,,0.00,VWS V14.01,2013-05-12 08:26:00,
2013-05-12 03:31:00,36.5,28.0,30.21,WNW,292,5.1,5.1,71,0.00,,,0.00,VWS V14.01,2013-05-12 08:31:00,
2013-05-12 03:36:00,36.5,28.0,30.21,WNW,292,3.3,3.3,71,0.00,,,0.00,VWS V14.01,2013-05-12 08:36:00,
2013-05-12 03:41:00,36.5,28.0,30.21,West,270,7.8,7.8,71,0.00,,,0.00,VWS V14.01,2013-05-12 08:41:00,
2013-05-12 03:46:00,36.5,27.7,30.21,NW,315,2.2,2.2,70,0.00,,,0.00,VWS V14.01,2013-05-12 08:46:00,
2013-05-12 03:51:00,36.5,27.7,30.21,NNW,338,5.1,5.1,70,0.00,,,0.00,VWS V14.01,2013-05-12 08:51:00,
2013-05-12 03:56:00,36.6,27.8,30.21,NW,315,6.0,6.0,70,0.00,,,0.00,VWS V14.01,2013-05-12 08:56:00,
2013-05-12 04:01:00,36.6,27.8,30.21,WNW,292,4.9,4.9,70,0.00,,,0.00,VWS V14.01,2013-05-12 09:01:00,
2013-05-12 04:06:00,36.5,27.7,30.21,WNW,292,3.8,3.8,70,0.00,,,0.00,VWS V14.01,2013-05-12 09:06:00,
2013-05-12 04:11:00,36.3,27.5,30.21,WNW,292,4.6,4.6,70,0.00,,,0.00,VWS V14.01,2013-05-12 09:11:00,
2013-05-12 04:16:00,36.3,27.5,30.21,WNW,292,1.3,1.3,70,0.00,,,0.00,VWS V14.01,2013-05-12 09:16:00,
2013-05-12 04:21:00,35.7,27.2,30.21,WNW,292,3.5,3.5,71,0.00,,,0.00,VWS V14.01,2013-05-12 09:21:00,
2013-05-12 04:26:00,35.4,27.3,30.22,WNW,292,5.5,5.5,72,0.00,,,0.00,VWS V14.01,2013-05-12 09:26:00,
2013-05-12 04:31:00,35.4,27.3,30.21,WNW,292,1.3,1.3,72,0.00,,,0.00,VWS V14.01,2013-05-12 09:31:00,
2013-05-12 04:36:00,35.4,27.3,30.21,WNW,292,4.4,4.4,72,0.00,,,0.00,VWS V14.01,2013-05-12 09:36:00,
2013-05-12 04:41:00,35.2,27.1,30.21,WNW,292,4.9,4.9,72,0.00,,,0.00,VWS V14.01,2013-05-12 09:41:00,
2013-05-12 04:46:00,35.4,27.3,30.21,NW,315,0.4,0.4,72,0.00,,,0.00,VWS V14.01,2013-05-12 09:46:00,
2013-05-12 04:51:00,35.4,27.3,30.21,NNW,338,2.9,2.9,72,0.00,,,0.00,VWS V14.01,2013-05-12 09:51:00,
2013-05-12 04:56:00,35.2,27.1,30.21,NW,315,1.1,1.1,72,0.00,,,0.00,VWS V14.01,2013-05-12 09:56:00,
2013-05-12 05:01:00,35.2,27.1,30.21,NW,315,0.0,0.0,72,0.00,,,0.00,VWS V14.01,2013-05-12 10:01:00,
2013-05-12 05:06:00,35.2,27.1,30.21,North,0,6.0,6.0,72,0.00,,,0.00,VWS V14.01,2013-05-12 10:06:00,
2013-05-12 05:11:00,35.2,27.1,30.21,WNW,292,3.1,3.1,72,0.00,,,0.00,VWS V14.01,2013-05-12 10:11:00,
2013-05-12 05:16:00,35.2,27.1,30.21,WNW,292,6.0,6.0,72,0.00,,,0.00,VWS V14.01,2013-05-12 10:16:00,
2013-05-12 05:21:00,35.2,27.1,30.21,WNW,292,6.0,6.0,72,0.00,,,0.00,VWS V14.01,2013-05-12 10:21:00,
2013-05-12 05:26:00,34.8,27.0,30.21,WNW,292,4.2,4.2,73,0.00,,,0.00,VWS V14.01,2013-05-12 10:26:00,
2013-05-12 05:31:00,34.7,27.0,30.22,NNW,338,0.4,0.4,73,0.00,,,0.00,VWS V14.01,2013-05-12 10:31:00,
2013-05-12 05:36:00,34.5,26.8,30.22,NNW,338,0.2,0.2,73,0.00,,,0.00,VWS V14.01,2013-05-12 10:36:00,
2013-05-12 05:41:00,34.5,26.8,30.22,NW,315,1.3,1.3,73,0.00,,,0.00,VWS V14.01,2013-05-12 10:41:00,
2013-05-12 05:46:00,34.5,26.8,30.22,NW,315,2.4,2.4,73,0.00,,,0.00,VWS V14.01,2013-05-12 10:46:00,
2013-05-12 05:51:00,34.7,27.0,30.22,NW,315,1.7,1.7,73,0.00,,,0.00,VWS V14.01,2013-05-12 10:51:00,
2013-05-12 05:56:00,35.2,27.4,30.22,NNW,338,6.2,6.2,73,0.00,,,0.00,VWS V14.01,2013-05-12 10:56:00,
2013-05-12 06:01:00,36.3,27.8,30.22,WNW,292,2.9,2.9,71,0.00,,,0.00,VWS V14.01,2013-05-12 11:01:00,
2013-05-12 06:06:00,37.4,28.2,30.22,NNW,338,3.3,3.3,69,0.00,,,0.00,VWS V14.01,2013-05-12 11:06:00,
2013-05-12 06:11:00,38.1,28.5,30.22,NW,315,3.3,3.3,68,0.00,,,0.00,VWS V14.01,2013-05-12 11:11:00,
2013-05-12 06:16:00,39.3,28.5,30.22,NW,315,3.8,3.8,65,0.00,,,0.00,VWS V14.01,2013-05-12 11:16:00,
2013-05-12 06:21:00,39.9,28.7,30.22,WNW,292,1.7,1.7,64,0.00,,,0.00,VWS V14.01,2013-05-12 11:21:00,
2013-05-12 06:26:00,40.2,29.0,30.23,WNW,292,1.7,1.7,64,0.00,,,0.00,VWS V14.01,2013-05-12 11:26:00,
2013-05-12 06:31:00,41.1,29.1,30.23,WNW,292,2.6,2.6,62,0.00,,,0.00,VWS V14.01,2013-05-12 11:31:00,
2013-05-12 06:36:00,41.7,29.7,30.23,NW,315,4.6,4.6,62,0.00,,,0.00,VWS V14.01,2013-05-12 11:36:00,
2013-05-12 06:41:00,42.0,29.5,30.23,WNW,292,3.5,3.5,61,0.00,,,0.00,VWS V14.01,2013-05-12 11:41:00,
2013-05-12 06:46:00,42.6,29.7,30.23,WNW,292,4.0,4.0,60,0.00,,,0.00,VWS V14.01,2013-05-12 11:46:00,
2013-05-12 06:50:00,42.6,29.7,30.23,WNW,292,1.1,1.1,60,0.00,,,0.00,VWS V14.01,2013-05-12 11:50:00,
2013-05-12 06:55:00,43.1,29.8,30.23,WNW,292,2.0,2.0,59,0.00,,,0.00,VWS V14.01,2013-05-12 11:55:00,
2013-05-12 07:00:00,43.8,30.0,30.23,NW,315,6.0,6.0,58,0.00,,,0.00,VWS V14.01,2013-05-12 12:00:00,
2013-05-12 07:05:00,44.4,29.7,30.23,WNW,292,2.0,2.0,56,0.00,,,0.00,VWS V14.01,2013-05-12 12:05:00,
2013-05-12 07:10:00,44.7,30.0,30.23,NW,315,1.1,1.1,56,0.00,,,0.00,VWS V14.01,2013-05-12 12:10:00,
2013-05-12 07:15:00,45.3,30.5,30.23,NW,315,6.4,6.4,56,0.00,,,0.00,VWS V14.01,2013-05-12 12:15:00,
2013-05-12 07:20:00,45.6,30.4,30.24,NW,315,9.3,9.3,55,0.00,,,0.00,VWS V14.01,2013-05-12 12:20:00,
2013-05-12 07:25:00,45.6,30.4,30.24,NW,315,6.9,6.9,55,0.00,,,0.00,VWS V14.01,2013-05-12 12:25:00,
2013-05-12 07:30:00,46.0,29.8,30.24,NW,315,7.1,7.1,53,0.00,,,0.00,VWS V14.01,2013-05-12 12:30:00,
2013-05-12 07:35:00,45.6,29.9,30.24,NNW,338,2.4,2.4,54,0.00,,,0.00,VWS V14.01,2013-05-12 12:35:00,
2013-05-12 07:40:00,46.0,29.8,30.24,NNW,338,8.0,8.0,53,0.00,,,0.00,VWS V14.01,2013-05-12 12:40:00,
2013-05-12 07:45:00,46.0,29.4,30.24,WNW,292,6.4,6.4,52,0.00,,,0.00,VWS V14.01,2013-05-12 12:45:00,
2013-05-12 07:50:00,45.5,28.9,30.24,North,0,11.8,11.8,52,0.00,,,0.00,VWS V14.01,2013-05-12 12:50:00,
2013-05-12 07:55:00,46.0,29.8,30.24,North,0,7.3,7.3,53,0.00,,,0.00,VWS V14.01,2013-05-12 12:55:00,
2013-05-12 08:00:00,46.9,30.2,30.24,NW,315,2.2,2.2,52,0.00,,,0.00,VWS V14.01,2013-05-12 13:00:00,
2013-05-12 08:05:00,47.4,30.2,30.25,NW,315,5.5,5.5,51,0.00,,,0.00,VWS V14.01,2013-05-12 13:05:00,
2013-05-12 08:10:00,48.0,31.2,30.25,NNW,338,2.9,2.9,52,0.00,,,0.00,VWS V14.01,2013-05-12 13:10:00,
2013-05-12 08:15:00,47.3,30.6,30.25,North,0,8.7,8.7,52,0.00,,,0.00,VWS V14.01,2013-05-12 13:15:00,
2013-05-12 08:20:00,47.4,30.7,30.25,NW,315,9.1,9.1,52,0.00,,,0.00,VWS V14.01,2013-05-12 13:20:00,
2013-05-12 08:25:00,48.0,30.3,30.24,NW,315,5.1,5.1,50,0.00,,,0.00,VWS V14.01,2013-05-12 13:25:00,
2013-05-12 08:30:00,48.2,30.0,30.24,NNW,338,9.1,9.1,49,0.00,,,0.00,VWS V14.01,2013-05-12 13:30:00,
2013-05-12 08:35:00,47.8,30.1,30.25,WNW,292,4.9,4.9,50,0.00,,,0.00,VWS V14.01,2013-05-12 13:35:00,
2013-05-12 08:40:00,48.2,29.5,30.25,North,0,7.1,7.1,48,0.00,,,0.00,VWS V14.01,2013-05-12 13:40:00,
2013-05-12 08:45:00,48.0,28.8,30.25,NNW,338,7.1,7.1,47,0.00,,,0.00,VWS V14.01,2013-05-12 13:45:00,
2013-05-12 08:50:00,48.0,28.8,30.25,NNW,338,6.7,6.7,47,0.00,,,0.00,VWS V14.01,2013-05-12 13:50:00,
2013-05-12 08:55:00,47.4,29.2,30.25,NNW,338,11.1,11.1,49,0.00,,,0.00,VWS V14.01,2013-05-12 13:55:00,
2013-05-12 09:00:00,48.7,30.4,30.25,North,0,10.5,10.5,49,0.00,,,0.00,VWS V14.01,2013-05-12 14:00:00,
2013-05-12 09:05:00,48.9,29.6,30.25,NNE,22,9.8,9.8,47,0.00,,,0.00,VWS V14.01,2013-05-12 14:05:00,
2013-05-12 09:10:00,49.4,31.1,30.25,NW,315,5.5,5.5,49,0.00,,,0.00,VWS V14.01,2013-05-12 14:10:00,
2013-05-12 09:15:00,50.7,30.7,30.25,NNW,338,6.7,6.7,46,0.00,,,0.00,VWS V14.01,2013-05-12 14:15:00,
2013-05-12 09:20:00,49.2,29.9,30.25,North,0,12.9,12.9,47,0.00,,,0.00,VWS V14.01,2013-05-12 14:20:00,
2013-05-12 09:25:00,48.7,28.3,30.25,NNW,338,12.7,12.7,45,0.00,,,0.00,VWS V14.01,2013-05-12 14:25:00,
2013-05-12 09:30:00,49.6,30.2,30.25,NNW,338,9.6,9.6,47,0.00,,,0.00,VWS V14.01,2013-05-12 14:30:00,
2013-05-12 09:35:00,50.3,30.9,30.25,NNW,338,10.7,10.7,47,0.00,,,0.00,VWS V14.01,2013-05-12 14:35:00,
2013-05-12 09:40:00,49.2,29.3,30.25,North,0,10.2,10.2,46,0.00,,,0.00,VWS V14.01,2013-05-12 14:40:00,
2013-05-12 09:45:00,49.8,29.3,30.25,WNW,292,12.0,12.0,45,0.00,,,0.00,VWS V14.01,2013-05-12 14:45:00,
2013-05-12 09:50:00,50.1,29.0,30.26,WNW,292,8.5,8.5,44,0.00,,,0.00,VWS V14.01,2013-05-12 14:50:00,
2013-05-12 09:55:00,50.9,30.9,30.26,NNW,338,20.3,20.3,46,0.00,,,0.00,VWS V14.01,2013-05-12 14:55:00,
2013-05-12 10:00:00,50.7,29.6,30.26,WNW,292,11.4,11.4,44,0.00,,,0.00,VWS V14.01,2013-05-12 15:00:00,
2013-05-12 10:05:00,49.8,28.8,30.25,NNW,338,6.2,6.2,44,0.00,,,0.00,VWS V14.01,2013-05-12 15:05:00,
2013-05-12 10:10:00,50.1,28.5,30.25,North,0,12.3,12.3,43,0.00,,,0.00,VWS V14.01,2013-05-12 15:10:00,
2013-05-12 10:15:00,50.3,29.2,30.26,North,0,10.0,10.0,44,0.00,,,0.00,VWS V14.01,2013-05-12 15:15:00,
2013-05-12 10:20:00,50.5,29.4,30.26,NW,315,9.6,9.6,44,0.00,,,0.00,VWS V14.01,2013-05-12 15:20:00,
2013-05-12 10:25:00,50.1,28.5,30.25,North,0,15.8,15.8,43,0.00,,,0.00,VWS V14.01,2013-05-12 15:25:00,
2013-05-12 10:30:00,49.8,29.3,30.26,NW,315,10.7,12.0,45,0.00,,,0.00,VWS V14.01,2013-05-12 15:30:00,
2013-05-12 10:35:00,50.7,29.6,30.26,NNW,338,8.9,8.9,44,0.00,,,0.00,VWS V14.01,2013-05-12 15:35:00,
2013-05-12 10:40:00,51.0,28.7,30.25,NW,315,12.7,12.7,42,0.00,,,0.00,VWS V14.01,2013-05-12 15:40:00,
2013-05-12 10:45:00,50.1,29.0,30.26,NW,315,5.5,15.8,44,0.00,,,0.00,VWS V14.01,2013-05-12 15:45:00,
2013-05-12 10:50:00,50.7,29.6,30.26,NW,315,14.0,14.0,44,0.00,,,0.00,VWS V14.01,2013-05-12 15:50:00,
2013-05-12 10:55:00,50.1,29.6,30.26,WNW,292,10.0,10.0,45,0.00,,,0.00,VWS V14.01,2013-05-12 15:55:00,
2013-05-12 11:00:00,49.6,28.6,30.26,NNW,338,6.7,9.6,44,0.00,,,0.00,VWS V14.01,2013-05-12 16:00:00,
2013-05-12 11:05:00,50.9,30.9,30.25,NW,315,14.7,14.7,46,0.00,,,0.00,VWS V14.01,2013-05-12 16:05:00,
2013-05-12 11:10:00,50.9,29.8,30.25,North,0,12.5,12.5,44,0.00,,,0.00,VWS V14.01,2013-05-12 16:10:00,
2013-05-12 11:15:00,50.1,28.5,30.25,North,0,6.7,14.9,43,0.00,,,0.00,VWS V14.01,2013-05-12 16:15:00,
2013-05-12 11:20:00,50.7,29.0,30.26,NNW,338,5.1,5.1,43,0.00,,,0.00,VWS V14.01,2013-05-12 16:20:00,
2013-05-12 11:25:00,50.9,29.8,30.26,WNW,292,7.8,7.8,44,0.00,,,0.00,VWS V14.01,2013-05-12 16:25:00,
2013-05-12 11:30:00,51.0,28.1,30.25,WNW,292,2.0,2.0,41,0.00,,,0.00,VWS V14.01,2013-05-12 16:30:00,
2013-05-12 11:35:00,51.2,29.5,30.25,WNW,292,10.2,10.2,43,0.00,,,0.00,VWS V14.01,2013-05-12 16:35:00,
2013-05-12 11:40:00,51.2,28.9,30.25,WNW,292,12.5,12.5,42,0.00,,,0.00,VWS V14.01,2013-05-12 16:40:00,
2013-05-12 11:45:00,50.5,28.3,30.25,WNW,292,9.3,9.3,42,0.00,,,0.00,VWS V14.01,2013-05-12 16:45:00,
2013-05-12 11:50:00,50.9,29.2,30.25,NW,315,14.7,14.7,43,0.00,,,0.00,VWS V14.01,2013-05-12 16:50:00,
2013-05-12 11:55:00,50.7,29.6,30.25,WNW,292,5.5,5.5,44,0.00,,,0.00,VWS V14.01,2013-05-12 16:55:00,
2013-05-12 12:00:00,50.9,28.1,30.25,North,0,10.5,10.5,41,0.00,,,0.00,VWS V14.01,2013-05-12 17:00:00,
2013-05-12 12:05:00,50.9,29.8,30.25,NNW,338,13.1,13.1,44,0.00,,,0.00,VWS V14.01,2013-05-12 17:05:00,
2013-05-12 12:10:00,51.2,28.9,30.25,NNW,338,13.4,13.4,42,0.00,,,0.00,VWS V14.01,2013-05-12 17:10:00,
2013-05-12 12:15:00,51.4,30.8,30.24,NNW,338,10.2,10.2,45,0.00,,,0.00,VWS V14.01,2013-05-12 17:15:00,
2013-05-12 12:20:00,51.0,26.3,30.25,WNW,292,9.3,9.3,38,0.00,,,0.00,VWS V14.01,2013-05-12 17:20:00,
2013-05-12 12:25:00,51.4,29.7,30.24,NW,315,16.1,16.1,43,0.00,,,0.00,VWS V14.01,2013-05-12 17:25:00,
2013-05-12 12:30:00,51.9,28.4,30.24,NNW,338,11.1,11.1,40,0.00,,,0.00,VWS V14.01,2013-05-12 17:30:00,
2013-05-12 12:35:00,52.3,29.9,30.24,NNW,338,6.2,6.2,42,0.00,,,0.00,VWS V14.01,2013-05-12 17:35:00,
2013-05-12 12:40:00,52.3,29.3,30.24,WNW,292,8.2,8.2,41,0.00,,,0.00,VWS V14.01,2013-05-12 17:40:00,
2013-05-12 12:45:00,52.3,28.7,30.23,NW,315,17.6,17.6,40,0.00,,,0.00,VWS V14.01,2013-05-12 17:45:00,
2013-05-12 12:50:00,52.3,29.3,30.24,NNW,338,0.8,0.8,41,0.00,,,0.00,VWS V14.01,2013-05-12 17:50:00,
2013-05-12 12:55:00,52.7,29.1,30.24,NNW,338,5.1,5.1,40,0.00,,,0.00,VWS V14.01,2013-05-12 17:55:00,
2013-05-12 13:00:00,52.5,28.9,30.24,WNW,292,5.1,5.1,40,0.00,,,0.00,VWS V14.01,2013-05-12 18:00:00,
2013-05-12 13:05:00,53.2,30.7,30.24,WNW,292,14.7,14.7,42,0.00,,,0.00,VWS V14.01,2013-05-12 18:05:00,
2013-05-12 13:10:00,53.2,30.7,30.24,North,0,2.9,2.9,42,0.00,,,0.00,VWS V14.01,2013-05-12 18:10:00,
2013-05-12 13:15:00,52.8,30.4,30.24,WNW,292,9.8,9.8,42,0.00,,,0.00,VWS V14.01,2013-05-12 18:15:00,
2013-05-12 13:20:00,53.4,29.1,30.23,NW,315,14.0,14.0,39,0.00,,,0.00,VWS V14.01,2013-05-12 18:20:00,
2013-05-12 13:25:00,53.4,29.1,30.24,NW,315,2.9,2.9,39,0.00,,,0.00,VWS V14.01,2013-05-12 18:25:00,
2013-05-12 13:30:00,53.2,29.5,30.24,NNW,338,6.9,6.9,40,0.00,,,0.00,VWS V14.01,2013-05-12 18:30:00,
2013-05-12 13:35:00,53.9,29.5,30.24,NW,315,12.9,12.9,39,0.00,,,0.00,VWS V14.01,2013-05-12 18:35:00,
2013-05-12 13:40:00,53.9,30.1,30.23,NNW,338,11.4,11.4,40,0.00,,,0.00,VWS V14.01,2013-05-12 18:40:00,
2013-05-12 13:45:00,54.1,29.7,30.23,WNW,292,2.9,2.9,39,0.00,,,0.00,VWS V14.01,2013-05-12 18:45:00,
2013-05-12 13:50:00,54.3,29.9,30.23,WNW,292,9.6,9.6,39,0.00,,,0.00,VWS V14.01,2013-05-12 18:50:00,
2013-05-12 13:55:00,54.1,29.7,30.23,WNW,292,14.5,14.5,39,0.00,,,0.00,VWS V14.01,2013-05-12 18:55:00,
2013-05-12 14:00:00,53.9,30.8,30.23,NW,315,16.7,16.7,41,0.00,,,0.00,VWS V14.01,2013-05-12 19:00:00,
2013-05-12 14:05:00,54.5,30.1,30.23,NNW,338,0.8,0.8,39,0.00,,,0.00,VWS V14.01,2013-05-12 19:05:00,
2013-05-12 14:10:00,54.6,30.2,30.23,WNW,292,9.6,9.6,39,0.00,,,0.00,VWS V14.01,2013-05-12 19:10:00,
2013-05-12 14:15:00,54.3,29.2,30.22,NW,315,3.1,3.1,38,0.00,,,0.00,VWS V14.01,2013-05-12 19:15:00,
2013-05-12 14:20:00,55.5,31.0,30.22,NNW,338,20.8,20.8,39,0.00,,,0.00,VWS V14.01,2013-05-12 19:20:00,
2013-05-12 14:25:00,55.0,31.1,30.22,WNW,292,16.3,16.3,40,0.00,,,0.00,VWS V14.01,2013-05-12 19:25:00,
2013-05-12 14:30:00,55.5,32.8,30.22,NNW,338,4.0,4.0,42,0.00,,,0.00,VWS V14.01,2013-05-12 19:30:00,
2013-05-12 14:35:00,55.7,31.1,30.21,WNW,292,12.9,12.9,39,0.00,,,0.00,VWS V14.01,2013-05-12 19:35:00,
2013-05-12 14:40:00,55.5,30.3,30.21,WNW,292,13.6,13.6,38,0.00,,,0.00,VWS V14.01,2013-05-12 19:40:00,
2013-05-12 14:45:00,55.5,31.0,30.21,NW,315,6.9,6.9,39,0.00,,,0.00,VWS V14.01,2013-05-12 19:45:00,
2013-05-12 14:50:00,55.9,30.7,30.21,NW,315,6.7,6.7,38,0.00,,,0.00,VWS V14.01,2013-05-12 19:50:00,
2013-05-12 14:55:00,55.9,30.7,30.20,NW,315,5.8,5.8,38,0.00,,,0.00,VWS V14.01,2013-05-12 19:55:00,
2013-05-12 15:00:00,56.1,30.2,30.21,WNW,292,8.0,8.0,37,0.00,,,0.00,VWS V14.01,2013-05-12 20:00:00,
2013-05-12 15:05:00,56.3,32.9,30.21,WNW,292,2.6,2.6,41,0.00,,,0.00,VWS V14.01,2013-05-12 20:05:00,
2013-05-12 15:10:00,56.3,30.4,30.20,WNW,292,10.0,10.0,37,0.00,,,0.00,VWS V14.01,2013-05-12 20:10:00,
2013-05-12 15:15:00,56.1,31.5,30.20,NNW,338,6.2,6.2,39,0.00,,,0.00,VWS V14.01,2013-05-12 20:15:00,
2013-05-12 15:20:00,56.6,31.3,30.20,NW,315,4.6,4.6,38,0.00,,,0.00,VWS V14.01,2013-05-12 20:20:00,
2013-05-12 15:25:00,56.3,30.4,30.20,NNW,338,18.5,18.5,37,0.00,,,0.00,VWS V14.01,2013-05-12 20:25:00,
2013-05-12 15:30:00,56.1,30.2,30.20,NW,315,12.3,12.3,37,0.00,,,0.00,VWS V14.01,2013-05-12 20:30:00,
2013-05-12 15:35:00,55.9,30.0,30.20,NNW,338,10.7,10.7,37,0.00,,,0.00,VWS V14.01,2013-05-12 20:35:00,
2013-05-12 15:40:00,56.4,31.8,30.20,NW,315,2.6,2.6,39,0.00,,,0.00,VWS V14.01,2013-05-12 20:40:00,
2013-05-12 15:45:00,57.0,31.7,30.20,NW,315,12.9,12.9,38,0.00,,,0.00,VWS V14.01,2013-05-12 20:45:00,
2013-05-12 15:50:00,57.0,31.0,30.20,WNW,292,8.0,8.0,37,0.00,,,0.00,VWS V14.01,2013-05-12 20:50:00,
2013-05-12 15:55:00,57.0,31.0,30.20,WNW,292,10.2,10.2,37,0.00,,,0.00,VWS V14.01,2013-05-12 20:55:00,
2013-05-12 16:00:00,57.5,32.1,30.20,NW,315,7.8,7.8,38,0.00,,,0.00,VWS V14.01,2013-05-12 21:00:00,
2013-05-12 16:05:00,57.3,32.6,30.19,SSW,202,6.4,6.4,39,0.00,,,0.00,VWS V14.01,2013-05-12 21:05:00,
2013-05-12 16:10:00,57.5,32.1,30.20,North,0,11.1,11.1,38,0.00,,,0.00,VWS V14.01,2013-05-12 21:10:00,
2013-05-12 16:15:00,57.0,30.3,30.19,WNW,292,12.9,12.9,36,0.00,,,0.00,VWS V14.01,2013-05-12 21:15:00,
2013-05-12 16:20:00,57.0,30.3,30.20,North,0,18.1,18.1,36,0.00,,,0.00,VWS V14.01,2013-05-12 21:20:00,
2013-05-12 16:25:00,57.0,30.3,30.19,NW,315,6.0,6.0,36,0.00,,,0.00,VWS V14.01,2013-05-12 21:25:00,
2013-05-12 16:30:00,56.8,30.1,30.19,NNW,338,12.0,12.0,36,0.00,,,0.00,VWS V14.01,2013-05-12 21:30:00,
2013-05-12 16:35:00,57.3,31.9,30.19,WNW,292,8.7,8.7,38,0.00,,,0.00,VWS V14.01,2013-05-12 21:35:00,
2013-05-12 16:40:00,57.3,30.6,30.18,NNW,338,19.6,19.6,36,0.00,,,0.00,VWS V14.01,2013-05-12 21:40:00,
2013-05-12 16:45:00,57.0,29.6,30.19,NNW,338,4.9,4.9,35,0.00,,,0.00,VWS V14.01,2013-05-12 21:45:00,
2013-05-12 16:50:00,57.3,29.9,30.18,NW,315,4.9,4.9,35,0.00,,,0.00,VWS V14.01,2013-05-12 21:50:00,
2013-05-12 16:55:00,57.0,29.6,30.18,NW,315,21.0,21.0,35,0.00,,,0.00,VWS V14.01,2013-05-12 21:55:00,
2013-05-12 17:00:00,56.8,30.1,30.18,WNW,292,12.5,12.5,36,0.00,,,0.00,VWS V14.01,2013-05-12 22:00:00,
2013-05-12 17:05:00,57.0,30.3,30.18,North,0,4.4,4.4,36,0.00,,,0.00,VWS V14.01,2013-05-12 22:05:00,
2013-05-12 17:10:00,56.8,30.8,30.18,WNW,292,10.0,10.0,37,0.00,,,0.00,VWS V14.01,2013-05-12 22:10:00,
2013-05-12 17:15:00,56.8,30.1,30.18,NNW,338,16.5,16.5,36,0.00,,,0.00,VWS V14.01,2013-05-12 22:15:00,
2013-05-12 17:20:00,56.8,30.1,30.18,NNW,338,6.0,6.0,36,0.00,,,0.00,VWS V14.01,2013-05-12 22:20:00,
2013-05-12 17:25:00,56.8,30.1,30.18,NNW,338,6.9,6.9,36,0.00,,,0.00,VWS V14.01,2013-05-12 22:25:00,
2013-05-12 17:30:00,56.8,30.1,30.18,WNW,292,12.9,12.9,36,0.00,,,0.00,VWS V14.01,2013-05-12 22:30:00,
2013-05-12 17:35:00,56.8,30.1,30.18,WNW,292,11.1,11.1,36,0.00,,,0.00,VWS V14.01,2013-05-12 22:35:00,
2013-05-12 17:40:00,56.8,30.8,30.18,NW,315,6.0,6.0,37,0.00,,,0.02,VWS V14.01,2013-05-12 22:40:00,
2013-05-12 17:45:00,56.8,30.1,30.18,NNW,338,15.2,15.2,36,0.00,,,0.00,VWS V14.01,2013-05-12 22:45:00,
2013-05-12 17:50:00,57.0,29.6,30.18,NW,315,11.1,11.1,35,0.00,,,0.00,VWS V14.01,2013-05-12 22:50:00,
2013-05-12 17:55:00,56.8,30.1,30.18,NNW,338,7.6,7.6,36,0.00,,,0.00,VWS V14.01,2013-05-12 22:55:00,
2013-05-12 18:00:00,56.8,30.8,30.18,NNW,338,3.8,3.8,37,0.00,,,0.00,VWS V14.01,2013-05-12 23:00:00,
2013-05-12 18:05:00,56.3,29.7,30.18,NW,315,12.5,12.5,36,0.00,,,0.00,VWS V14.01,2013-05-12 23:05:00,
2013-05-12 18:10:00,56.4,30.5,30.18,WNW,292,8.7,8.7,37,0.00,,,0.00,VWS V14.01,2013-05-12 23:10:00,
2013-05-12 18:15:00,56.3,29.7,30.17,NW,315,12.7,12.7,36,0.00,,,0.00,VWS V14.01,2013-05-12 23:15:00,
2013-05-12 18:20:00,55.9,29.4,30.17,NNW,338,14.0,14.0,36,0.00,,,0.00,VWS V14.01,2013-05-12 23:20:00,
2013-05-12 18:25:00,55.9,29.4,30.17,NW,315,10.9,10.9,36,0.00,,,0.00,VWS V14.01,2013-05-12 23:25:00,
2013-05-12 18:30:00,55.9,30.0,30.17,North,0,6.9,6.9,37,0.00,,,0.00,VWS V14.01,2013-05-12 23:30:00,
2013-05-12 18:35:00,55.7,29.9,30.17,North,0,7.6,7.6,37,0.00,,,0.00,VWS V14.01,2013-05-12 23:35:00,
2013-05-12 18:40:00,55.7,29.9,30.17,NW,315,6.9,6.9,37,0.00,,,0.00,VWS V14.01,2013-05-12 23:40:00,
2013-05-12 18:45:00,55.5,29.0,30.17,WNW,292,6.2,6.2,36,0.00,,,0.00,VWS V14.01,2013-05-12 23:45:00,
2013-05-12 18:50:00,55.4,29.6,30.17,WNW,292,6.7,6.7,37,0.00,,,0.00,VWS V14.01,2013-05-12 23:50:00,
2013-05-12 18:55:00,55.2,29.4,30.17,WNW,292,13.4,13.4,37,0.00,,,0.00,VWS V14.01,2013-05-12 23:55:00,
2013-05-12 19:00:00,55.0,29.9,30.17,NNW,338,12.3,12.3,38,0.00,,,0.00,VWS V14.01,2013-05-13 00:00:00,
2013-05-12 19:05:00,54.8,29.7,30.17,NNE,22,0.8,0.8,38,0.00,,,0.00,VWS V14.01,2013-05-13 00:05:00,
2013-05-12 19:10:00,54.6,29.5,30.18,North,0,5.5,5.5,38,0.00,,,0.00,VWS V14.01,2013-05-13 00:10:00,
2013-05-12 19:15:00,54.5,30.7,30.17,NW,315,4.2,4.2,40,0.00,,,0.00,VWS V14.01,2013-05-13 00:15:00,
2013-05-12 19:20:00,54.1,28.4,30.18,WNW,292,19.9,19.9,37,0.00,,,0.00,VWS V14.01,2013-05-13 00:20:00,
2013-05-12 19:25:00,53.7,29.4,30.18,NNW,338,7.1,7.1,39,0.00,,,0.00,VWS V14.01,2013-05-13 00:25:00,
2013-05-12 19:30:00,53.7,29.4,30.18,WNW,292,3.5,3.5,39,0.00,,,0.00,VWS V14.01,2013-05-13 00:30:00,
2013-05-12 19:35:00,53.4,29.7,30.17,WNW,292,1.5,1.5,40,0.00,,,0.00,VWS V14.01,2013-05-13 00:35:00,
2013-05-12 19:40:00,53.2,29.5,30.18,WNW,292,3.5,3.5,40,0.00,,,0.00,VWS V14.01,2013-05-13 00:40:00,
2013-05-12 19:45:00,52.5,29.5,30.18,NW,315,2.6,2.6,41,0.00,,,0.00,VWS V14.01,2013-05-13 00:45:00,
2013-05-12 19:50:00,52.3,29.3,30.18,NW,315,5.3,5.3,41,0.00,,,0.00,VWS V14.01,2013-05-13 00:50:00,
2013-05-12 19:55:00,51.9,29.5,30.18,North,0,5.5,5.5,42,0.00,,,0.00,VWS V14.01,2013-05-13 00:55:00,
2013-05-12 20:00:00,51.2,29.5,30.18,NW,315,3.3,3.3,43,0.00,,,0.00,VWS V14.01,2013-05-13 01:00:00,
2013-05-12 20:05:00,50.7,29.0,30.18,NW,315,0.0,0.0,43,0.00,,,0.00,VWS V14.01,2013-05-13 01:05:00,
2013-05-12 20:10:00,50.3,29.2,30.18,NW,315,2.6,2.6,44,0.00,,,0.00,VWS V14.01,2013-05-13 01:10:00,
2013-05-12 20:15:00,49.6,28.6,30.18,WNW,292,0.6,0.6,44,0.00,,,0.00,VWS V14.01,2013-05-13 01:15:00,
2013-05-12 20:20:00,49.1,28.7,30.18,NW,315,0.0,0.0,45,0.00,,,0.00,VWS V14.01,2013-05-13 01:20:00,
2013-05-12 20:25:00,48.9,29.0,30.18,NW,315,0.0,0.0,46,0.00,,,0.00,VWS V14.01,2013-05-13 01:25:00,
2013-05-12 20:30:00,48.3,28.5,30.18,NNW,338,0.0,0.0,46,0.00,,,0.00,VWS V14.01,2013-05-13 01:30:00,
2013-05-12 20:35:00,48.2,28.4,30.18,NNW,338,0.0,0.0,46,0.00,,,0.00,VWS V14.01,2013-05-13 01:35:00,
2013-05-12 20:40:00,48.0,28.8,30.18,NNW,338,1.1,1.1,47,0.00,,,0.00,VWS V14.01,2013-05-13 01:40:00,
2013-05-12 20:45:00,47.8,28.6,30.18,NNW,338,0.0,0.0,47,0.00,,,0.00,VWS V14.01,2013-05-13 01:45:00,
2013-05-12 20:50:00,47.4,28.7,30.18,NNW,338,0.4,0.4,48,0.00,,,0.00,VWS V14.01,2013-05-13 01:50:00,
2013-05-12 20:55:00,47.1,28.4,30.18,NNW,338,0.0,0.0,48,0.00,,,0.00,VWS V14.01,2013-05-13 01:55:00,
2013-05-12 21:00:00,47.1,28.4,30.19,NNW,338,0.0,0.0,48,0.00,,,0.00,VWS V14.01,2013-05-13 02:00:00,
2013-05-12 21:05:00,47.1,28.4,30.19,NNW,338,0.0,0.0,48,0.00,,,0.00,VWS V14.01,2013-05-13 02:05:00,
2013-05-12 21:10:00,47.1,28.4,30.19,NW,315,1.1,1.1,48,0.00,,,0.00,VWS V14.01,2013-05-13 02:10:00,
2013-05-12 21:15:00,46.5,28.4,30.19,NW,315,0.0,0.0,49,0.00,,,0.00,VWS V14.01,2013-05-13 02:15:00,
2013-05-12 21:20:00,46.0,28.4,30.19,NW,315,0.0,0.0,50,0.00,,,0.00,VWS V14.01,2013-05-13 02:20:00,
2013-05-12 21:25:00,45.6,28.5,30.19,NW,315,0.0,0.0,51,0.00,,,0.00,VWS V14.01,2013-05-13 02:25:00,
2013-05-12 21:30:00,46.0,28.4,30.19,NW,315,0.0,0.0,50,0.00,,,0.00,VWS V14.01,2013-05-13 02:30:00,
2013-05-12 21:35:00,46.2,28.6,30.20,NW,315,0.4,0.4,50,0.00,,,0.00,VWS V14.01,2013-05-13 02:35:00,
2013-05-12 21:40:00,46.5,28.4,30.19,NW,315,0.0,0.0,49,0.00,,,0.00,VWS V14.01,2013-05-13 02:40:00,
2013-05-12 21:45:00,46.0,28.9,30.20,West,270,0.0,0.0,51,0.00,,,0.00,VWS V14.01,2013-05-13 02:45:00,
2013-05-12 21:50:00,45.3,28.7,30.20,West,270,0.0,0.0,52,0.00,,,0.00,VWS V14.01,2013-05-13 02:50:00,
2013-05-12 21:55:00,44.7,28.6,30.19,West,270,0.0,0.0,53,0.00,,,0.00,VWS V14.01,2013-05-13 02:55:00,
2013-05-12 22:00:00,44.0,28.4,30.20,West,270,0.0,0.0,54,0.00,,,0.00,VWS V14.01,2013-05-13 03:00:00,
2013-05-12 22:05:00,43.7,28.6,30.20,West,270,0.0,0.0,55,0.00,,,0.00,VWS V14.01,2013-05-13 03:05:00,
2013-05-12 22:10:00,43.3,28.7,30.20,West,270,0.0,0.0,56,0.00,,,0.00,VWS V14.01,2013-05-13 03:10:00,
2013-05-12 22:15:00,43.7,28.6,30.20,West,270,0.0,0.0,55,0.00,,,0.00,VWS V14.01,2013-05-13 03:15:00,
2013-05-12 22:20:00,43.8,28.2,30.20,West,270,0.0,0.0,54,0.00,,,0.00,VWS V14.01,2013-05-13 03:20:00,
2013-05-12 22:25:00,43.7,28.6,30.20,West,270,0.0,0.0,55,0.00,,,0.00,VWS V14.01,2013-05-13 03:25:00,
2013-05-12 22:30:00,43.3,28.7,30.19,West,270,0.0,0.0,56,0.00,,,0.00,VWS V14.01,2013-05-13 03:30:00,
2013-05-12 22:35:00,43.3,29.1,30.20,West,270,0.0,0.0,57,0.00,,,0.00,VWS V14.01,2013-05-13 03:35:00,
2013-05-12 22:40:00,42.9,29.2,30.20,West,270,0.0,0.0,58,0.00,,,0.00,VWS V14.01,2013-05-13 03:40:00,
2013-05-12 22:45:00,42.4,29.1,30.20,West,270,0.0,0.0,59,0.00,,,0.00,VWS V14.01,2013-05-13 03:45:00,
2013-05-12 22:50:00,42.0,28.7,30.20,West,270,0.0,0.0,59,0.00,,,0.00,VWS V14.01,2013-05-13 03:50:00,
2013-05-12 22:55:00,42.0,28.3,30.20,West,270,0.0,0.0,58,0.00,,,0.00,VWS V14.01,2013-05-13 03:55:00,
2013-05-12 23:00:00,42.6,28.5,30.20,West,270,0.0,0.0,57,0.00,,,0.00,VWS V14.01,2013-05-13 04:00:00,
2013-05-12 23:01:00,42.6,28.5,30.20,West,270,0.0,0.0,57,0.00,,,0.00,VWS V14.01,2013-05-13 04:01:00,
2013-05-12 23:06:00,42.9,28.7,30.20,West,270,0.0,0.0,57,0.00,,,0.00,VWS V14.01,2013-05-13 04:06:00,
2013-05-12 23:11:00,42.9,28.7,30.20,West,270,0.0,0.0,57,0.00,,,0.00,VWS V14.01,2013-05-13 04:11:00,
2013-05-12 23:16:00,42.6,28.9,30.20,West,270,0.0,0.0,58,0.00,,,0.00,VWS V14.01,2013-05-13 04:16:00,
2013-05-12 23:21:00,42.0,29.1,30.20,West,270,0.0,0.0,60,0.00,,,0.00,VWS V14.01,2013-05-13 04:21:00,
2013-05-12 23:26:00,41.9,29.0,30.20,West,270,0.0,0.0,60,0.00,,,0.00,VWS V14.01,2013-05-13 04:26:00,
2013-05-12 23:31:00,41.7,28.9,30.20,West,270,0.0,0.0,60,0.00,,,0.00,VWS V14.01,2013-05-13 04:31:00,
2013-05-12 23:36:00,41.5,28.7,30.20,West,270,0.0,0.0,60,0.00,,,0.00,VWS V14.01,2013-05-13 04:36:00,
2013-05-12 23:41:00,41.3,28.9,30.20,West,270,0.0,0.0,61,0.00,,,0.00,VWS V14.01,2013-05-13 04:41:00,
2013-05-12 23:46:00,41.1,28.7,30.20,West,270,0.0,0.0,61,0.00,,,0.00,VWS V14.01,2013-05-13 04:46:00,
2013-05-12 23:51:00,41.1,28.7,30.20,West,270,0.0,0.0,61,0.00,,,0.00,VWS V14.01,2013-05-13 04:51:00,
2013-05-12 23:56:00,41.1,28.7,30.20,West,270,0.0,0.0,61,0.00,,,0.00,VWS V14.01,2013-05-13 04:56:00,